PWSweather.com
Personal Weather Stations
Station Observations
PHMDWX
Perry Hall, MD 21236

Perry Hall, MD 21236

Lat: 39.418318, Lon: -76.490039

Elevation: 305

Station Type: Davis Vantage Pro

Latest ConditionsUpdated 6:00:20 PM EDT Friday, May 29, 2015
Currently Today's Max Today's Min Today's Average
Temperature 82.9°F28.3°C 84.0°F28.9°C 65.3°F18.5°C 74.2°F23.4°C
Dew Point 69.5°F20.8°C 69.5°F20.8°C 56.5°F13.6°C 62.6°F17.0°C
Winds 1.9 mph ESE3.1 kmh ESE 5.0 mph NNE8.0 kmh NNE - 2.1 mph 3.4 kmh
Wind Gusts 3.0 mph4.8 kmh 9.0 mph14.5 kmh - -
Humidity 64% 92% 58% 68%
Pressure 30.16 in1021.3 mb 30.25 in1024.4 mb 30.16 in1021.3 mb -
Hour Temp Dew Point Humidity Winds Wind Gusts Pressure Precip Precip Rate Daily Precip Total
06:00 PM 82.9°F28.3°C 69.5°F20.8°C 64% 1.9 mph ESE3.1 kmh ESE 3.0 mph4.8 kmh 30.16 in1021.3 mb - 0.00 in0.0 mm 0.00 in0.0 mm
05:30 PM 84.0°F28.9°C 69.1°F20.6°C 61% 2.0 mph SE3.2 kmh SE 3.0 mph4.8 kmh 30.16 in1021.3 mb - 0.00 in0.0 mm 0.00 in0.0 mm
05:00 PM 83.8°F28.8°C 67.9°F19.9°C 59% 1.5 mph SSE2.4 kmh SSE 7.0 mph11.3 kmh 30.16 in1021.3 mb - 0.00 in0.0 mm 0.00 in0.0 mm
04:30 PM 83.4°F28.6°C 69.0°F20.6°C 62% 2.7 mph SSE4.3 kmh SSE 8.0 mph12.9 kmh 30.17 in1021.7 mb - 0.00 in0.0 mm 0.00 in0.0 mm
04:00 PM 82.5°F28.1°C 68.2°F20.1°C 62% 1.8 mph SSE2.9 kmh SSE 6.0 mph9.7 kmh 30.18 in1022.0 mb - 0.00 in0.0 mm 0.00 in0.0 mm
03:30 PM 83.0°F28.3°C 67.2°F19.6°C 59% 1.1 mph SE1.8 kmh SE 4.0 mph6.4 kmh 30.20 in1022.7 mb - 0.00 in0.0 mm 0.00 in0.0 mm
03:00 PM 81.6°F27.6°C 65.9°F18.8°C 59% 2.6 mph SE4.2 kmh SE 6.0 mph9.7 kmh 30.20 in1022.7 mb - 0.00 in0.0 mm 0.00 in0.0 mm
02:30 PM 82.4°F28.0°C 66.1°F18.9°C 58% 2.4 mph E3.9 kmh E 5.0 mph8.0 kmh 30.21 in1023.0 mb - 0.00 in0.0 mm 0.00 in0.0 mm
02:00 PM 81.1°F27.3°C 65.4°F18.6°C 59% 2.1 mph ENE3.4 kmh ENE 2.0 mph3.2 kmh 30.22 in1023.4 mb - 0.00 in0.0 mm 0.00 in0.0 mm
01:30 PM 80.1°F26.7°C 65.5°F18.6°C 61% 1.0 mph ENE1.6 kmh ENE 5.0 mph8.0 kmh 30.23 in1023.7 mb - 0.00 in0.0 mm 0.00 in0.0 mm
01:00 PM 80.1°F26.7°C 64.0°F17.8°C 58% 4.2 mph ESE6.8 kmh ESE 5.0 mph8.0 kmh 30.23 in1023.7 mb - 0.00 in0.0 mm 0.00 in0.0 mm
12:30 PM 78.1°F25.6°C 64.0°F17.8°C 62% 1.2 mph NE1.9 kmh NE 7.0 mph11.3 kmh 30.23 in1023.7 mb - 0.00 in0.0 mm 0.00 in0.0 mm
12:00 PM 77.2°F25.1°C 62.2°F16.8°C 60% 2.1 mph SE3.4 kmh SE 6.0 mph9.7 kmh 30.23 in1023.7 mb - 0.00 in0.0 mm 0.00 in0.0 mm
11:30 AM 76.3°F24.6°C 61.9°F16.6°C 61% 2.1 mph SE3.4 kmh SE 6.0 mph9.7 kmh 30.25 in1024.4 mb - 0.00 in0.0 mm 0.00 in0.0 mm
11:00 AM 74.9°F23.8°C 61.0°F16.1°C 62% 0.9 mph NNE1.4 kmh NNE 2.0 mph3.2 kmh 30.25 in1024.4 mb - 0.00 in0.0 mm 0.00 in0.0 mm
10:30 AM 73.7°F23.2°C 60.8°F16.0°C 64% 3.0 mph E4.8 kmh E 6.0 mph9.7 kmh 30.25 in1024.4 mb - 0.00 in0.0 mm 0.00 in0.0 mm
10:00 AM 73.3°F22.9°C 59.9°F15.5°C 63% 2.9 mph NE4.7 kmh NE 5.0 mph8.0 kmh 30.25 in1024.4 mb - 0.00 in0.0 mm 0.00 in0.0 mm
09:30 AM 72.3°F22.4°C 60.3°F15.7°C 66% 3.8 mph SE6.1 kmh SE 6.0 mph9.7 kmh 30.25 in1024.4 mb - 0.00 in0.0 mm 0.00 in0.0 mm
09:00 AM 70.6°F21.4°C 59.5°F15.3°C 68% 2.9 mph ENE4.7 kmh ENE 5.0 mph8.0 kmh 30.25 in1024.4 mb - 0.00 in0.0 mm 0.00 in0.0 mm
08:30 AM 69.4°F20.8°C 59.2°F15.1°C 70% 5.0 mph NNE8.0 kmh NNE 9.0 mph14.5 kmh 30.25 in1024.4 mb - 0.00 in0.0 mm 0.00 in0.0 mm
08:00 AM 68.4°F20.2°C 58.2°F14.6°C 70% 3.3 mph NE5.3 kmh NE 6.0 mph9.7 kmh 30.25 in1024.4 mb - 0.00 in0.0 mm 0.00 in0.0 mm
07:30 AM 67.3°F19.6°C 58.0°F14.4°C 72% 2.8 mph NE4.5 kmh NE 5.0 mph8.0 kmh 30.24 in1024.0 mb - 0.00 in0.0 mm 0.00 in0.0 mm
07:00 AM 65.8°F18.8°C 56.5°F13.6°C 72% 4.8 mph NE7.7 kmh NE 6.0 mph9.7 kmh 30.23 in1023.7 mb - 0.00 in0.0 mm 0.00 in0.0 mm
06:30 AM 65.3°F18.5°C 57.2°F14.0°C 75% Calm Calm -- 30.22 in1023.4 mb - 0.00 in0.0 mm 0.00 in0.0 mm
06:00 AM 66.3°F19.1°C 56.6°F13.7°C 71% 2.4 mph NNE3.9 kmh NNE 5.0 mph8.0 kmh 30.21 in1023.0 mb - 0.00 in0.0 mm 0.00 in0.0 mm
05:30 AM 67.0°F19.4°C 56.5°F13.6°C 69% 0.6 mph N1.0 kmh N 1.0 mph1.6 kmh 30.20 in1022.7 mb - 0.00 in0.0 mm 0.00 in0.0 mm
05:00 AM 67.8°F19.9°C 57.2°F14.0°C 69% 2.1 mph NNE3.4 kmh NNE 2.0 mph3.2 kmh 30.20 in1022.7 mb - 0.00 in0.0 mm 0.00 in0.0 mm
04:30 AM 68.8°F20.4°C 57.0°F13.9°C 66% 1.8 mph NNE2.9 kmh NNE 2.0 mph3.2 kmh 30.19 in1022.4 mb - 0.00 in0.0 mm 0.00 in0.0 mm
04:00 AM 69.6°F20.9°C 59.0°F15.0°C 69% 1.7 mph NE2.7 kmh NE 6.0 mph9.7 kmh 30.18 in1022.0 mb - 0.00 in0.0 mm 0.00 in0.0 mm
03:30 AM 70.3°F21.3°C 59.2°F15.1°C 68% 3.4 mph NE5.5 kmh NE 5.0 mph8.0 kmh 30.18 in1022.0 mb - 0.00 in0.0 mm 0.00 in0.0 mm
03:00 AM 71.3°F21.8°C 60.6°F15.9°C 69% 1.7 mph NE2.7 kmh NE 2.0 mph3.2 kmh 30.19 in1022.4 mb - 0.00 in0.0 mm 0.00 in0.0 mm
02:30 AM 71.8°F22.1°C 59.0°F15.0°C 64% 2.5 mph NE4.0 kmh NE 3.0 mph4.8 kmh 30.19 in1022.4 mb - 0.00 in0.0 mm 0.00 in0.0 mm
02:00 AM 70.4°F21.3°C 60.5°F15.8°C 71% 2.8 mph N4.5 kmh N 7.0 mph11.3 kmh 30.19 in1022.4 mb - 0.00 in0.0 mm 0.00 in0.0 mm
01:30 AM 69.6°F20.9°C 67.2°F19.6°C 92% Calm Calm -- 30.18 in1022.0 mb - 0.00 in0.0 mm 0.00 in0.0 mm
01:00 AM 70.3°F21.3°C 67.9°F19.9°C 92% Calm Calm -- 30.18 in1022.0 mb - 0.00 in0.0 mm 0.00 in0.0 mm
12:30 AM 71.3°F21.8°C 68.5°F20.3°C 91% Calm Calm -- 30.17 in1021.7 mb - 0.00 in0.0 mm 0.00 in0.0 mm
12:00 AM 72.3°F22.4°C 68.9°F20.5°C 89% Calm Calm -- 30.17 in1021.7 mb - 0.00 in0.0 mm 0.00 in0.0 mm